Sault Ste Marie Airport
CYAM : now visible

Airfield :











YOU CAN JOIN US ON...

 
LOGIN :

Register | Disclaimer

   EN    FR    IT 

 









Legend :    VFR   Marginal VFR   IFR   Intensive IFR   Very Intensive IFR
Visi :
Ceiling :
>= 8 km
>= 3000ft
5 to 8 km
1000 to 3000 ft
1500m to 5 km
500 to 1000 ft
800 to 1500m
200 to 500 ft
< 800m
< 200 ft
Symbols :   Thunderstorms  Fog  Heavy snow  Heavy precipitations  Wind > 20 kt






- Airport Elevation : 630 ft
- IATA code : YAM


CYAM - Sault Ste Marie

CURRENT METAR :
  • 100100Z 18008KT 20SM FEW048 FEW120 SCT190 27/17 A2982 RMK CU1AC1AC2 CU TR CONTRAILS SLP098 DENSITY ALT 2300FT

EXPIRED METARs :
  • 100000Z 20007KT 20SM FEW045 FEW150 SCT210 28/19 A2982 RMK CU1AC1CI1 CI TR CONTRAILS SLP097 DENSITY ALT 2500FT
  • 092300Z 22006KT 20SM FEW045TCU FEW150 FEW250 SCT280 BKN300 31/19 A2979 RMK TCU1AC1CC1CI2CI3 TCU TR AC TR CONTRAILS SLP089 DENSITY ALT 2800FT

TAF TAF CYAM
Valid from the 10 at 02:00 until the 10 at 14:00 UTC


100139Z 1002/1014 VRB03KT P6SM FEW050 SCT190
FM100600 VRB03KT P6SM SCT120
FM100800 07006KT P6SM SCT080
TEMPO 1008/1012 4SM -SHRA BR SCT002 BKN080
PROB30 1008/1012 2SM TSRA BR BKN002 OVC015CB
FM101200 08005KT P6SM -SHRA BKN020
TEMPO 1012/1014 4SM -SHRA BR SCT002 OVC008
PROB30 1012/1014 BKN002 OVC008CB RMK NXT FCST BY 100800Z
CZYZ FIR / North America



MET'MAP, your aeronautical weather chart ! - Copyright ORBIFLY December 2007 - Disclaimer

ORBIFLY MET'MAP TEAM :

Programming & Development : Alexandra Zaïnal
Concept & original design : Baudouin d'Aumeries
Assistance for programming : Marc-Olivier Méhu
Technical & hardware support : Manuel Goepfert

Contact : metmap@orbifly.com




SOURCES & CREDITS :

   NOAA       Earth
Advisory